Terminal Aerodrome Forecast
Issued by NWS

Home | Current Version | Previous Version | Text Only | Print | Product List | Glossary Off
Versions: 1 2 3 4 5 6 7 8 9 10 11 12 13 14 15 16 17 18 19 20 21 22 23 24 25 26 27 28 29 30 31 32 33 34

459
FTUS43 KLOT 220532
TAFMDW
TAF
KMDW 220532Z 2206/2306 VRB03KT 1/4SM FG VV002
     FM221200 01002KT 3/4SM BR OVC003
      TEMPO 2212/2216 1/4SM FG VV002
     FM221600 03007KT 3SM BR OVC006
     FM221900 01010KT P6SM OVC015=

USA.gov is the U.S. government's official web portal to all federal, state and local government web resources and services.